createdAt,value
2019-02-27T00:00:56.441Z,26.83
2019-02-27T00:03:29.103Z,23.47
2019-02-27T00:05:58.128Z,24.00
2019-02-27T00:08:27.479Z,22.57
2019-02-27T00:10:56.470Z,19.67
2019-02-27T00:13:25.481Z,17.97
2019-02-27T00:15:54.616Z,20.47
2019-02-27T00:18:24.462Z,12.87
2019-02-27T00:20:53.399Z,11.30
2019-02-27T00:23:24.151Z,10.20
2019-02-27T00:25:53.330Z,10.17
2019-02-27T00:28:23.346Z,11.27
2019-02-27T00:30:52.847Z,10.70
2019-02-27T00:33:24.904Z,13.47
2019-02-27T00:35:52.281Z,9.77
2019-02-27T00:38:28.355Z,9.00
2019-02-27T00:41:11.709Z,10.27
2019-02-27T00:43:46.516Z,15.70
2019-02-27T00:46:16.901Z,9.23
2019-02-27T00:48:45.599Z,9.70
2019-02-27T00:51:14.588Z,8.87
2019-02-27T00:53:43.578Z,9.27
2019-02-27T00:56:12.920Z,8.50
2019-02-27T00:58:41.835Z,9.20
2019-02-27T01:01:12.786Z,10.03
2019-02-27T01:03:42.316Z,8.87
2019-02-27T01:06:12.164Z,7.97
2019-02-27T01:08:42.037Z,9.60
2019-02-27T01:11:11.133Z,8.20
2019-02-27T01:13:39.919Z,10.67
2019-02-27T01:16:08.919Z,9.77
2019-02-27T01:18:37.906Z,8.23
2019-02-27T01:21:06.999Z,7.77
2019-02-27T01:23:36.092Z,9.23
2019-02-27T01:26:05.085Z,7.93
2019-02-27T01:28:33.975Z,7.97
2019-02-27T01:31:03.084Z,9.70
2019-02-27T01:33:32.065Z,8.50
2019-02-27T01:36:00.954Z,10.23
2019-02-27T01:38:29.740Z,9.23
2019-02-27T01:40:58.519Z,7.70
2019-02-27T01:43:27.284Z,8.27
2019-02-27T01:45:56.173Z,7.77
2019-02-27T01:48:24.995Z,10.47
2019-02-27T01:50:55.210Z,7.87
2019-02-27T01:53:24.718Z,7.03
2019-02-27T01:55:56.223Z,8.80
2019-02-27T01:58:24.409Z,7.77
2019-02-27T02:00:56.107Z,10.17
2019-02-27T02:03:23.927Z,8.40
2019-02-27T02:05:53.703Z,8.60
2019-02-27T02:08:22.666Z,8.00
2019-02-27T02:10:53.124Z,7.20
2019-02-27T02:13:25.013Z,7.97
2019-02-27T02:16:07.172Z,9.03
2019-02-27T02:18:43.053Z,6.37
2019-02-27T02:21:37.407Z,8.63
2019-02-27T02:24:25.540Z,6.10
2019-02-27T02:26:58.931Z,8.00
2019-02-27T02:29:45.880Z,5.97
2019-02-27T02:32:36.330Z,6.77
2019-02-27T02:35:18.529Z,7.97
2019-02-27T02:38:05.275Z,9.10
2019-02-27T02:40:59.554Z,6.13
2019-02-27T02:43:40.168Z,8.63
2019-02-27T02:46:09.728Z,6.23
2019-02-27T02:49:06.522Z,5.73
2019-02-27T02:52:04.350Z,21.23
2019-02-27T02:54:42.333Z,21.87
2019-02-27T02:57:18.952Z,24.27
2019-02-27T02:59:59.462Z,27.03
2019-02-27T03:02:31.521Z,27.40
2019-02-27T03:05:23.249Z,31.40
2019-02-27T03:08:23.578Z,32.10
2019-02-27T03:11:04.078Z,38.30
2019-02-27T03:13:43.416Z,45.63
2019-02-27T03:16:30.858Z,47.23
2019-02-27T03:19:06.378Z,48.20
2019-02-27T03:21:41.268Z,48.60
2019-02-27T03:24:38.320Z,51.60
2019-02-27T03:27:29.637Z,58.73
2019-02-27T03:30:33.742Z,54.77
2019-02-27T03:33:23.418Z,61.57
2019-02-27T03:36:06.553Z,61.87
2019-02-27T03:38:55.808Z,58.43
2019-02-27T03:41:37.075Z,64.60
2019-02-27T03:44:31.078Z,63.20
2019-02-27T03:47:19.117Z,63.27
2019-02-27T03:49:58.280Z,58.07
2019-02-27T03:52:58.299Z,56.40
2019-02-27T03:55:39.819Z,57.33
2019-02-27T03:58:30.239Z,60.40
2019-02-27T04:01:03.335Z,58.87
2019-02-27T04:03:38.886Z,55.50
2019-02-27T04:06:13.060Z,53.20
2019-02-27T04:08:55.767Z,57.27
2019-02-27T04:11:25.045Z,51.63
2019-02-27T04:13:55.024Z,60.10
2019-02-27T04:16:28.872Z,58.27
2019-02-27T04:18:54.665Z,58.93
2019-02-27T04:21:25.369Z,54.57
2019-02-27T04:23:54.268Z,53.67
2019-02-27T04:26:23.324Z,54.53
2019-02-27T04:28:52.168Z,57.90
2019-02-27T04:35:48.778Z,54.67
2019-02-27T04:38:17.869Z,53.27
2019-02-27T04:40:49.645Z,53.73
2019-02-27T04:43:18.482Z,54.83
2019-02-27T04:45:49.382Z,54.97
2019-02-27T04:48:18.644Z,54.97
2019-02-27T04:50:47.157Z,55.80
2019-02-27T04:53:15.796Z,56.93
2019-02-27T04:55:44.811Z,55.03
2019-02-27T04:58:13.985Z,49.20
2019-02-27T05:00:42.807Z,41.47
2019-02-27T05:03:11.744Z,36.67
2019-02-27T05:05:41.399Z,31.30
2019-02-27T05:08:10.885Z,30.73
2019-02-27T05:10:40.543Z,23.10
2019-02-27T05:13:10.924Z,31.33
2019-02-27T05:15:43.020Z,27.90
2019-02-27T05:18:11.671Z,29.83
2019-02-27T05:20:44.904Z,21.93
2019-02-27T05:23:11.149Z,23.87
2019-02-27T05:25:41.326Z,19.13
2019-02-27T05:28:10.123Z,21.87
2019-02-27T05:30:38.862Z,38.97
2019-02-27T05:33:07.657Z,34.47
2019-02-27T05:35:36.637Z,28.47
2019-02-27T05:38:05.709Z,21.47
2019-02-27T05:40:34.387Z,21.83
2019-02-27T05:43:47.716Z,26.30
2019-02-27T05:46:45.726Z,27.10
2019-02-27T05:49:51.556Z,24.17
2019-02-27T05:52:42.324Z,21.37
2019-02-27T05:55:50.136Z,22.17
2019-02-27T05:58:36.635Z,24.70
2019-02-27T06:01:24.120Z,27.17
2019-02-27T06:04:06.256Z,25.40
2019-02-27T06:07:11.541Z,27.70
2019-02-27T06:10:06.575Z,26.60
2019-02-27T06:12:57.798Z,28.17
2019-02-27T06:15:45.950Z,30.77
2019-02-27T06:18:41.907Z,30.90
2019-02-27T06:21:41.737Z,28.50
2019-02-27T06:25:21.386Z,32.13
2019-02-27T06:28:25.293Z,36.03
2019-02-27T06:31:41.800Z,37.77
2019-02-27T06:34:29.402Z,43.30
2019-02-27T06:36:58.067Z,38.83
2019-02-27T06:39:27.630Z,36.80
2019-02-27T06:41:56.527Z,41.37
2019-02-27T06:44:26.121Z,40.15
2019-02-27T06:46:54.706Z,43.60
2019-02-27T06:49:23.210Z,40.57
2019-02-27T06:51:51.663Z,44.90
2019-02-27T06:54:20.082Z,41.30
2019-02-27T06:56:49.516Z,41.08
2019-02-27T06:59:18.256Z,37.43
2019-02-27T07:01:47.521Z,30.73
2019-02-27T07:04:16.567Z,31.95
2019-02-27T07:06:45.286Z,49.77
2019-02-27T07:09:13.595Z,38.77
2019-02-27T07:11:44.931Z,31.60
2019-02-27T07:14:12.139Z,42.30
2019-02-27T07:16:41.735Z,41.63
2019-02-27T07:19:10.133Z,35.17
2019-02-27T07:21:38.530Z,36.93
2019-02-27T07:24:06.865Z,38.47
2019-02-27T07:26:35.182Z,36.97
2019-02-27T07:29:03.620Z,34.43
2019-02-27T07:36:40.530Z,29.70
2019-02-27T07:43:59.023Z,32.67
2019-02-27T07:46:35.626Z,26.17
2019-02-27T07:49:14.995Z,26.93
2019-02-27T07:52:05.659Z,18.37
2019-02-27T07:54:46.523Z,19.30
2019-02-27T07:57:19.554Z,14.43
2019-02-27T08:00:00.775Z,15.30
2019-02-27T08:02:51.067Z,14.23
2019-02-27T08:05:30.574Z,17.37
2019-02-27T08:08:06.861Z,17.87
2019-02-27T08:10:45.305Z,17.07
2019-02-27T08:13:19.434Z,16.27
2019-02-27T08:15:54.507Z,14.67
2019-02-27T08:18:30.167Z,14.73
2019-02-27T08:20:55.927Z,13.87
2019-02-27T08:23:32.884Z,16.10
2019-02-27T08:26:05.159Z,13.40
2019-02-27T08:28:33.155Z,16.10
2019-02-27T08:31:01.552Z,11.80
2019-02-27T08:33:30.970Z,15.03
2019-02-27T08:35:59.790Z,12.57
2019-02-27T08:38:28.255Z,20.60
2019-02-27T08:40:58.234Z,17.43
2019-02-27T08:43:26.739Z,14.47
2019-02-27T08:45:55.105Z,17.20
2019-02-27T08:48:23.483Z,24.07
2019-02-27T08:50:51.920Z,31.17
2019-02-27T08:53:23.045Z,26.20
2019-02-27T08:55:50.610Z,24.17
2019-02-27T08:58:19.239Z,32.50
2019-02-27T09:00:48.241Z,31.10
2019-02-27T09:03:20.230Z,39.03
2019-02-27T09:05:47.141Z,39.40
2019-02-27T09:08:15.610Z,33.73
2019-02-27T09:10:45.036Z,31.30
2019-02-27T09:13:16.412Z,30.07
2019-02-27T09:15:47.229Z,33.00
2019-02-27T09:18:15.678Z,28.93
2019-02-27T09:20:44.200Z,27.53
2019-02-27T09:23:12.552Z,22.10
2019-02-27T09:25:42.257Z,27.00
2019-02-27T09:28:10.826Z,23.90
2019-02-27T09:31:03.268Z,23.37
2019-02-27T09:33:38.338Z,28.67
2019-02-27T09:36:01.469Z,31.57
2019-02-27T09:38:35.745Z,30.57
2019-02-27T09:41:06.382Z,24.23
2019-02-27T09:43:36.426Z,23.93
2019-02-27T09:46:09.993Z,22.57
2019-02-27T09:48:40.308Z,24.93
2019-02-27T09:51:10.157Z,21.67
2019-02-27T09:53:39.453Z,24.57
2019-02-27T09:56:08.834Z,26.60
2019-02-27T09:58:38.335Z,34.97
2019-02-27T10:01:26.704Z,27.70
2019-02-27T10:03:56.185Z,24.77
2019-02-27T10:06:25.329Z,27.53
2019-02-27T10:08:56.473Z,23.83
2019-02-27T10:11:25.690Z,18.50
2019-02-27T10:13:55.639Z,19.40
2019-02-27T10:16:24.857Z,15.80
2019-02-27T10:18:55.548Z,16.70
2019-02-27T10:21:25.769Z,20.93
2019-02-27T10:23:55.180Z,17.30
2019-02-27T10:26:24.494Z,17.30
2019-02-27T10:28:54.320Z,17.27
2019-02-27T10:31:25.903Z,16.63
2019-02-27T10:33:55.565Z,19.03
2019-02-27T10:36:25.904Z,14.17
2019-02-27T10:38:55.703Z,17.80
2019-02-27T10:41:25.492Z,15.57
2019-02-27T10:43:56.663Z,14.10
2019-02-27T10:46:27.241Z,17.07
2019-02-27T10:48:56.783Z,14.43
2019-02-27T10:51:25.609Z,17.57
2019-02-27T10:53:55.260Z,12.57
2019-02-27T10:56:24.932Z,13.00
2019-02-27T10:58:54.861Z,12.57
2019-02-27T11:01:24.388Z,10.43
2019-02-27T11:03:54.636Z,12.77
2019-02-27T11:06:24.014Z,12.80
2019-02-27T11:08:53.854Z,11.37
2019-02-27T11:11:23.064Z,7.47
2019-02-27T11:13:55.323Z,7.70
2019-02-27T11:16:24.635Z,10.37
2019-02-27T11:18:53.741Z,9.27
2019-02-27T11:21:22.704Z,12.20
2019-02-27T11:23:51.575Z,7.33
2019-02-27T11:26:20.659Z,9.53
2019-02-27T11:28:49.379Z,10.10
2019-02-27T11:31:22.388Z,5.77
2019-02-27T11:33:51.158Z,6.70
2019-02-27T11:36:20.261Z,9.07
2019-02-27T11:38:49.065Z,9.40
2019-02-27T11:41:18.106Z,10.53
2019-02-27T11:43:46.987Z,10.17
2019-02-27T11:46:15.814Z,7.67
2019-02-27T11:48:44.805Z,15.57
2019-02-27T11:51:14.007Z,8.90
2019-02-27T11:53:43.088Z,7.87
2019-02-27T11:56:11.647Z,6.93
2019-02-27T11:58:40.680Z,5.70
2019-02-27T12:01:12.138Z,4.50
2019-02-27T12:03:45.724Z,5.53
2019-02-27T12:06:12.083Z,7.67
2019-02-27T12:08:41.352Z,6.13
2019-02-27T12:11:13.207Z,8.30
2019-02-27T12:13:40.887Z,6.43
2019-02-27T12:16:10.714Z,6.25
2019-02-27T12:18:39.883Z,6.20
2019-02-27T12:21:08.672Z,7.60
2019-02-27T12:23:37.300Z,6.53
2019-02-27T12:26:06.226Z,8.00
2019-02-27T12:28:34.831Z,7.47
2019-02-27T12:31:03.820Z,6.17
2019-02-27T12:33:34.427Z,6.33
2019-02-27T12:36:03.612Z,7.97
2019-02-27T12:38:32.440Z,6.43
2019-02-27T12:41:01.430Z,9.63
2019-02-27T12:43:30.337Z,9.13
2019-02-27T12:46:00.914Z,7.67
2019-02-27T12:48:30.442Z,9.97
2019-02-27T12:51:03.444Z,8.07
2019-02-27T12:53:30.067Z,9.83
2019-02-27T12:55:59.199Z,8.20
2019-02-27T12:58:28.047Z,8.78
2019-02-27T13:00:56.609Z,10.13
2019-02-27T13:03:25.640Z,10.20
2019-02-27T13:05:54.633Z,10.30
2019-02-27T13:08:23.630Z,7.87
2019-02-27T13:10:52.307Z,11.10
2019-02-27T13:13:23.286Z,9.55
2019-02-27T13:15:52.038Z,9.57
2019-02-27T13:18:21.129Z,8.53
2019-02-27T13:20:49.918Z,7.13
2019-02-27T13:23:19.028Z,4.90
2019-02-27T13:25:47.905Z,5.65
2019-02-27T13:28:16.997Z,6.10
2019-02-27T13:30:46.090Z,9.27
2019-02-27T13:33:14.879Z,5.57
2019-02-27T13:35:44.145Z,4.73
2019-02-27T13:38:17.732Z,7.77
2019-02-27T13:40:43.699Z,4.80
2019-02-27T13:43:12.595Z,4.83
2019-02-27T13:45:41.580Z,5.97
2019-02-27T13:48:10.679Z,5.63
2019-02-27T13:50:39.465Z,6.07
2019-02-27T13:53:08.558Z,4.43
2019-02-27T13:55:37.347Z,3.27
2019-02-27T13:58:06.317Z,4.33
2019-02-27T14:00:35.094Z,4.87
2019-02-27T14:03:03.810Z,5.67
2019-02-27T14:05:35.421Z,6.23
2019-02-27T14:08:03.435Z,7.23
2019-02-27T14:10:32.431Z,7.33
2019-02-27T14:13:01.484Z,5.93
2019-02-27T14:15:31.534Z,8.33
2019-02-27T14:18:01.862Z,6.07
2019-02-27T14:20:31.938Z,6.60
2019-02-27T14:23:00.641Z,5.67
2019-02-27T14:25:33.073Z,8.33
2019-02-27T14:28:00.104Z,9.57
2019-02-27T14:30:31.124Z,7.27
2019-02-27T14:32:59.781Z,7.80
2019-02-27T14:35:35.242Z,6.70
2019-02-27T14:38:00.353Z,8.27
2019-02-27T14:40:29.273Z,9.40
2019-02-27T14:42:58.035Z,7.25
2019-02-27T14:45:27.031Z,10.57
2019-02-27T14:47:55.795Z,10.20
2019-02-27T14:50:24.780Z,10.03
2019-02-27T14:52:53.665Z,9.80
2019-02-27T14:55:22.657Z,12.33
2019-02-27T14:57:51.661Z,8.83
2019-02-27T15:00:22.230Z,7.50
2019-02-27T15:02:52.114Z,9.73
2019-02-27T15:05:21.120Z,8.47
2019-02-27T15:07:53.397Z,7.13
2019-02-27T15:10:20.737Z,8.03
2019-02-27T15:12:53.983Z,15.03
2019-02-27T15:15:21.570Z,69.53
2019-02-27T15:17:51.221Z,84.23
2019-02-27T15:20:22.108Z,83.77
2019-02-27T15:22:52.426Z,85.83
2019-02-27T15:25:21.567Z,105.20
2019-02-27T15:27:50.544Z,110.83
2019-02-27T15:30:20.154Z,97.67
2019-02-27T15:32:48.874Z,103.30
2019-02-27T15:35:21.930Z,95.20
2019-02-27T15:37:49.585Z,92.03
2019-02-27T15:40:19.209Z,97.43
2019-02-27T15:42:47.838Z,93.23
2019-02-27T15:45:16.951Z,91.07
2019-02-27T15:47:45.827Z,94.10
2019-02-27T15:50:15.778Z,84.97
2019-02-27T15:52:44.475Z,89.50
2019-02-27T15:55:13.493Z,99.23
2019-02-27T15:57:42.235Z,93.93
2019-02-27T16:00:17.684Z,88.17
2019-02-27T16:02:43.191Z,83.13
2019-02-27T16:05:12.257Z,86.93
2019-02-27T16:07:41.078Z,85.33
2019-02-27T16:10:10.805Z,86.47
2019-02-27T16:12:39.885Z,88.60
2019-02-27T16:15:08.790Z,92.87
2019-02-27T16:17:37.767Z,85.37
2019-02-27T16:20:07.846Z,85.43
2019-02-27T16:22:36.839Z,96.83
2019-02-27T16:25:05.963Z,93.17
2019-02-27T16:27:35.379Z,95.53
2019-02-27T16:30:05.792Z,90.17
2019-02-27T16:32:34.308Z,86.87
2019-02-27T16:35:04.397Z,84.30
2019-02-27T16:37:33.806Z,87.20
2019-02-27T16:40:02.794Z,92.97
2019-02-27T16:42:32.624Z,90.93
2019-02-27T16:45:01.508Z,82.80
2019-02-27T16:47:30.334Z,78.13
2019-02-27T16:49:59.245Z,79.73
2019-02-27T16:52:28.127Z,82.13
2019-02-27T16:55:01.291Z,81.90
2019-02-27T16:57:30.044Z,91.87
2019-02-27T16:59:58.955Z,91.87
2019-02-27T17:02:27.832Z,89.37
2019-02-27T17:04:56.535Z,88.00
2019-02-27T17:07:26.040Z,100.37
2019-02-27T17:09:55.619Z,93.13
2019-02-27T17:12:24.610Z,91.27
2019-02-27T17:14:55.448Z,88.62
2019-02-27T17:17:24.307Z,98.27
2019-02-27T17:19:53.169Z,113.37
2019-02-27T17:22:22.221Z,106.93
2019-02-27T17:24:55.152Z,100.83
2019-02-27T17:27:41.616Z,98.07
2019-02-27T17:31:04.061Z,99.73
2019-02-27T17:34:15.645Z,112.73
2019-02-27T17:37:45.242Z,106.73
2019-02-27T17:40:55.328Z,114.13
2019-02-27T17:44:35.307Z,115.03
2019-02-27T17:47:07.615Z,100.77
2019-02-27T17:49:37.081Z,104.67
2019-02-27T17:52:11.282Z,103.70
2019-02-27T17:54:36.739Z,104.10
2019-02-27T17:57:05.725Z,103.27
2019-02-27T18:00:04.783Z,110.07
2019-02-27T18:02:36.882Z,90.63
2019-02-27T18:05:06.014Z,85.27
2019-02-27T18:07:35.008Z,79.77
2019-02-27T18:10:04.212Z,85.53
2019-02-27T18:12:33.298Z,83.73
2019-02-27T18:15:02.212Z,78.77
2019-02-27T18:17:34.695Z,77.10
2019-02-27T18:20:02.635Z,68.27
2019-02-27T18:22:32.047Z,72.60
2019-02-27T18:25:45.263Z,75.10
2019-02-27T18:28:15.283Z,69.83
2019-02-27T18:30:44.954Z,76.30
2019-02-27T18:33:17.331Z,73.67
2019-02-27T18:35:46.208Z,79.80
2019-02-27T18:38:16.075Z,80.10
2019-02-27T18:40:44.949Z,79.90
2019-02-27T18:43:14.690Z,75.80
2019-02-27T18:45:44.317Z,83.07
2019-02-27T18:48:15.163Z,73.57
2019-02-27T18:50:44.734Z,223.37
2019-02-27T18:53:14.217Z,221.80
2019-02-27T18:55:44.150Z,204.80
2019-02-27T18:58:13.635Z,276.07
2019-02-27T19:00:44.112Z,253.17
2019-02-27T19:03:33.957Z,171.47
2019-02-27T19:06:04.672Z,125.47
2019-02-27T19:08:35.748Z,101.67
2019-02-27T19:11:05.857Z,91.03
2019-02-27T19:13:35.153Z,85.90
2019-02-27T19:16:05.541Z,90.93
2019-02-27T19:18:35.234Z,81.27
2019-02-27T19:21:04.267Z,80.23
2019-02-27T19:23:34.137Z,76.87
2019-02-27T19:26:06.387Z,77.97
2019-02-27T19:28:37.083Z,83.63
2019-02-27T19:31:06.626Z,77.10
2019-02-27T19:33:36.876Z,75.33
2019-02-27T19:36:06.931Z,73.03
2019-02-27T19:38:36.552Z,78.83
2019-02-27T19:41:06.740Z,72.80
2019-02-27T19:43:36.278Z,71.80
2019-02-27T19:46:06.936Z,82.73
2019-02-27T19:48:38.395Z,76.73
2019-02-27T19:51:08.301Z,77.03
2019-02-27T19:53:39.634Z,71.50
2019-02-27T19:56:10.585Z,81.00
2019-02-27T19:58:41.105Z,85.07
2019-02-27T20:01:11.355Z,94.47
2019-02-27T20:03:41.624Z,100.33
2019-02-27T20:06:12.556Z,113.30
2019-02-27T20:08:45.312Z,63.67
2019-02-27T20:11:15.476Z,61.93
2019-02-27T20:13:46.652Z,66.43
2019-02-27T20:16:17.750Z,55.37
2019-02-27T20:18:55.259Z,56.53
2019-02-27T20:21:26.253Z,55.23
2019-02-27T20:24:01.032Z,52.80
2019-02-27T20:26:44.945Z,53.63
2019-02-27T20:29:18.653Z,51.30
2019-02-27T20:31:48.587Z,54.40
2019-02-27T20:34:18.710Z,48.97
2019-02-27T20:36:49.651Z,48.70
2019-02-27T20:39:23.166Z,50.93
2019-02-27T20:41:52.429Z,50.10
2019-02-27T20:44:22.895Z,53.57
2019-02-27T20:46:53.113Z,58.23
2019-02-27T20:49:23.380Z,51.70
2019-02-27T20:51:53.216Z,48.07
2019-02-27T20:54:24.307Z,48.63
2019-02-27T20:56:55.779Z,48.00
2019-02-27T20:59:26.616Z,48.97
2019-02-27T21:01:57.046Z,47.10
2019-02-27T21:04:27.421Z,40.87
2019-02-27T21:06:58.531Z,42.30
2019-02-27T21:09:28.016Z,45.93
2019-02-27T21:12:01.092Z,47.40
2019-02-27T21:14:29.974Z,45.63
2019-02-27T21:16:59.239Z,46.53
2019-02-27T21:19:28.769Z,42.93
2019-02-27T21:21:58.728Z,41.93
2019-02-27T21:24:28.133Z,46.57
2019-02-27T21:26:58.371Z,41.53
2019-02-27T21:29:27.716Z,40.60
2019-02-27T21:32:01.457Z,46.30
2019-02-27T21:34:31.166Z,44.03
2019-02-27T21:37:01.063Z,42.80
2019-02-27T21:39:30.696Z,38.83
2019-02-27T21:42:00.069Z,43.57
2019-02-27T21:44:29.801Z,40.70
2019-02-27T21:46:59.524Z,39.57
2019-02-27T21:49:31.708Z,38.60
2019-02-27T21:52:00.202Z,42.40
2019-02-27T21:54:29.333Z,40.73
2019-02-27T21:56:58.829Z,40.43
2019-02-27T21:59:28.385Z,38.43
2019-02-27T22:01:58.263Z,39.63
2019-02-27T22:04:27.359Z,41.77
2019-02-27T22:06:58.430Z,37.73
2019-02-27T22:09:28.682Z,35.43
2019-02-27T22:11:58.137Z,36.00
2019-02-27T22:14:28.829Z,40.77
2019-02-27T22:17:01.700Z,34.73
2019-02-27T22:19:30.178Z,33.20
2019-02-27T22:22:01.732Z,33.27
2019-02-27T22:24:30.646Z,33.30
2019-02-27T22:27:00.351Z,32.50
2019-02-27T22:29:29.255Z,35.53
2019-02-27T22:31:58.143Z,36.83
2019-02-27T22:34:27.727Z,31.50
2019-02-27T22:36:57.772Z,32.17
2019-02-27T22:39:26.656Z,37.93
2019-02-27T22:41:55.654Z,37.33
2019-02-27T22:44:26.359Z,33.47
2019-02-27T22:46:58.578Z,29.83
2019-02-27T22:49:27.750Z,31.37
2019-02-27T22:51:57.807Z,27.40
2019-02-27T22:54:26.956Z,31.87
2019-02-27T22:56:57.071Z,34.13
2019-02-27T22:59:26.787Z,26.03
2019-02-27T23:01:56.524Z,26.97
2019-02-27T23:04:26.466Z,28.87
2019-02-27T23:06:56.449Z,32.10
2019-02-27T23:09:26.632Z,28.93
2019-02-27T23:11:55.643Z,27.73
2019-02-27T23:14:24.751Z,29.60
2019-02-27T23:16:53.695Z,29.37
2019-02-27T23:19:22.623Z,28.30
2019-02-27T23:21:52.447Z,30.93
2019-02-27T23:24:21.521Z,26.97
2019-02-27T23:26:54.160Z,30.33
2019-02-27T23:29:22.073Z,27.67
2019-02-27T23:31:50.963Z,31.33
2019-02-27T23:34:20.120Z,33.27
2019-02-27T23:36:48.947Z,32.90
2019-02-27T23:39:17.735Z,33.43
2019-02-27T23:41:46.932Z,33.40
2019-02-27T23:44:15.822Z,31.30
2019-02-27T23:46:49.768Z,31.67
2019-02-27T23:49:15.554Z,34.53
2019-02-27T23:51:47.766Z,33.67
2019-02-27T23:54:15.317Z,32.17
2019-02-27T23:56:44.234Z,29.47
2019-02-27T23:59:12.951Z,37.87
